createdAt,value
2023-03-28T00:02:06.944Z,9.24
2023-03-28T00:04:37.591Z,9.26
2023-03-28T00:07:06.081Z,9.28
2023-03-28T00:09:34.370Z,9.23
2023-03-28T00:12:03.974Z,9.17
2023-03-28T00:14:32.225Z,9.15
2023-03-28T00:17:02.052Z,9.12
2023-03-28T00:19:33.098Z,9.15
2023-03-28T00:22:01.449Z,9.12
2023-03-28T00:24:29.633Z,9.11
2023-03-28T00:27:00.652Z,9.11
2023-03-28T00:29:30.376Z,9.07
2023-03-28T00:31:58.697Z,9.06
2023-03-28T00:34:27.111Z,9.02
2023-03-28T00:36:55.411Z,9.02
2023-03-28T00:39:23.658Z,8.97
2023-03-28T00:41:52.397Z,8.93
2023-03-28T00:44:49.238Z,8.88
2023-03-28T00:47:30.949Z,8.86
2023-03-28T00:50:03.225Z,8.78
2023-03-28T00:52:35.772Z,8.76
2023-03-28T00:55:07.164Z,8.69
2023-03-28T00:57:38.342Z,8.68
2023-03-28T01:00:12.887Z,8.60
2023-03-28T01:02:46.652Z,8.54
2023-03-28T01:05:15.253Z,8.45
2023-03-28T01:07:50.599Z,8.43
2023-03-28T01:10:20.734Z,8.42
2023-03-28T01:12:49.924Z,8.28
2023-03-28T01:15:19.914Z,8.04
2023-03-28T01:17:48.342Z,7.96
2023-03-28T01:20:30.275Z,7.80
2023-03-28T01:23:45.823Z,7.68
2023-03-28T01:26:51.236Z,7.52
2023-03-28T01:29:54.998Z,7.40
2023-03-28T01:32:57.588Z,7.31
2023-03-28T01:36:04.713Z,7.12
2023-03-28T01:38:40.022Z,7.08
2023-03-28T01:41:20.072Z,7.02
2023-03-28T01:43:53.607Z,6.99
2023-03-28T01:46:29.212Z,7.00
2023-03-28T01:49:05.231Z,7.04
2023-03-28T01:51:47.422Z,6.97
2023-03-28T01:54:29.137Z,6.95
2023-03-28T01:57:04.524Z,6.88
2023-03-28T01:59:39.025Z,6.84
2023-03-28T02:02:13.434Z,6.78
2023-03-28T02:04:46.604Z,6.69
2023-03-28T02:07:16.441Z,6.57
2023-03-28T02:09:47.446Z,6.53
2023-03-28T02:12:21.626Z,6.48
2023-03-28T02:14:52.085Z,6.45
2023-03-28T02:17:22.263Z,6.40
2023-03-28T02:19:55.214Z,6.36
2023-03-28T02:22:32.945Z,6.25
2023-03-28T02:25:02.845Z,6.15
2023-03-28T02:27:32.133Z,6.08
2023-03-28T02:30:00.702Z,6.11
2023-03-28T02:32:28.978Z,6.04
2023-03-28T02:34:57.327Z,6.03
2023-03-28T02:37:41.271Z,5.98
2023-03-28T02:40:29.082Z,5.84
2023-03-28T02:43:18.932Z,5.75
2023-03-28T02:46:17.675Z,5.72
2023-03-28T02:49:01.753Z,5.70
2023-03-28T02:51:35.898Z,5.73
2023-03-28T02:54:19.123Z,5.70
2023-03-28T02:57:01.879Z,5.73
2023-03-28T02:59:35.984Z,5.64
2023-03-28T03:02:07.651Z,5.58
2023-03-28T03:04:36.086Z,5.54
2023-03-28T03:07:04.384Z,5.39
2023-03-28T03:09:33.426Z,5.30
2023-03-28T03:12:03.083Z,5.24
2023-03-28T03:14:31.247Z,5.23
2023-03-28T03:16:59.459Z,5.18
2023-03-28T03:19:27.716Z,5.17
2023-03-28T03:21:55.927Z,5.16
2023-03-28T03:24:25.217Z,5.12
2023-03-28T03:26:53.697Z,5.10
2023-03-28T03:29:23.256Z,4.97
2023-03-28T03:31:51.761Z,4.96
2023-03-28T03:34:20.096Z,4.92
2023-03-28T03:36:50.095Z,4.89
2023-03-28T03:39:18.404Z,4.80
2023-03-28T03:41:46.517Z,4.79
2023-03-28T03:44:14.685Z,4.72
2023-03-28T03:46:44.353Z,4.71
2023-03-28T03:49:12.693Z,4.72
2023-03-28T03:51:41.132Z,4.68
2023-03-28T03:54:09.306Z,4.63
2023-03-28T03:56:37.464Z,4.68
2023-03-28T03:59:05.864Z,4.63
2023-03-28T04:01:36.051Z,4.61
2023-03-28T04:04:07.451Z,4.64
2023-03-28T04:06:35.936Z,4.59
2023-03-28T04:09:04.125Z,4.61
2023-03-28T04:11:32.184Z,4.59
2023-03-28T04:14:00.698Z,4.59
2023-03-28T04:16:29.919Z,4.59
2023-03-28T04:19:13.891Z,4.62
2023-03-28T04:21:43.921Z,4.56
2023-03-28T04:24:15.767Z,4.58
2023-03-28T04:26:46.058Z,4.58
2023-03-28T04:29:16.457Z,4.60
2023-03-28T04:31:50.314Z,4.62
2023-03-28T04:34:20.520Z,4.63
2023-03-28T04:36:48.836Z,4.64
2023-03-28T04:39:17.028Z,4.67
2023-03-28T04:41:46.641Z,4.67
2023-03-28T04:44:14.935Z,4.70
2023-03-28T04:46:43.974Z,4.74
2023-03-28T04:49:12.357Z,4.75
2023-03-28T04:51:42.375Z,4.77
2023-03-28T04:54:10.630Z,4.73
2023-03-28T04:56:38.778Z,4.76
2023-03-28T04:59:07.067Z,4.78
2023-03-28T05:01:35.795Z,4.76
2023-03-28T05:04:04.240Z,4.78
2023-03-28T05:06:32.892Z,4.76
2023-03-28T05:09:02.491Z,4.77
2023-03-28T05:11:31.694Z,4.81
2023-03-28T05:13:59.818Z,4.83
2023-03-28T05:16:28.315Z,4.91
2023-03-28T05:18:56.804Z,4.93
2023-03-28T05:21:27.335Z,4.84
2023-03-28T05:23:55.670Z,4.76
2023-03-28T05:26:25.847Z,4.77
2023-03-28T05:28:54.236Z,4.76
2023-03-28T05:31:22.548Z,4.81
2023-03-28T05:33:50.750Z,4.70
2023-03-28T05:36:19.079Z,4.70
2023-03-28T05:38:47.694Z,4.70
2023-03-28T05:41:16.133Z,4.73
2023-03-28T05:43:45.613Z,4.77
2023-03-28T05:46:14.039Z,4.74
2023-03-28T05:48:42.805Z,4.82
2023-03-28T05:51:17.738Z,4.84
2023-03-28T05:53:46.020Z,4.85
2023-03-28T05:56:14.853Z,4.92
2023-03-28T05:58:43.471Z,4.92
2023-03-28T06:01:18.657Z,5.00
2023-03-28T06:03:48.479Z,5.14
2023-03-28T06:06:18.244Z,5.20
2023-03-28T06:08:47.511Z,5.20
2023-03-28T06:11:16.349Z,5.25
2023-03-28T06:13:44.537Z,5.23
2023-03-28T06:16:15.533Z,5.18
2023-03-28T06:18:43.756Z,5.26
2023-03-28T06:21:13.227Z,5.26
2023-03-28T06:23:41.859Z,5.29
2023-03-28T06:26:10.139Z,5.32
2023-03-28T06:28:38.495Z,5.37
2023-03-28T06:31:06.947Z,5.48
2023-03-28T06:33:37.671Z,5.55
2023-03-28T06:36:07.212Z,5.68
2023-03-28T06:38:35.566Z,5.78
2023-03-28T06:41:03.982Z,5.97
2023-03-28T06:43:32.356Z,6.17
2023-03-28T06:46:00.623Z,6.03
2023-03-28T06:48:33.633Z,5.97
2023-03-28T06:51:06.281Z,6.01
2023-03-28T06:53:36.196Z,5.86
2023-03-28T06:56:04.414Z,5.90
2023-03-28T06:58:33.922Z,5.87
2023-03-28T07:01:02.514Z,5.97
2023-03-28T07:03:33.146Z,6.03
2023-03-28T07:06:10.120Z,6.05
2023-03-28T07:08:38.568Z,6.09
2023-03-28T07:11:09.308Z,6.17
2023-03-28T07:13:38.745Z,6.13
2023-03-28T07:16:09.402Z,6.34
2023-03-28T07:18:38.767Z,6.39
2023-03-28T07:21:11.208Z,6.37
2023-03-28T07:23:40.575Z,6.29
2023-03-28T07:26:11.129Z,6.35
2023-03-28T07:28:40.055Z,6.40
2023-03-28T07:31:09.179Z,6.54
2023-03-28T07:33:39.571Z,6.54
2023-03-28T07:36:16.744Z,6.46
2023-03-28T07:38:48.397Z,6.48
2023-03-28T07:41:17.464Z,6.47
2023-03-28T07:43:48.646Z,6.62
2023-03-28T07:46:18.102Z,6.66
2023-03-28T07:48:46.723Z,6.60
2023-03-28T07:51:18.280Z,6.69
2023-03-28T07:53:46.920Z,6.57
2023-03-28T07:56:15.006Z,6.78
2023-03-28T07:58:43.309Z,6.79
2023-03-28T08:01:13.999Z,6.77
2023-03-28T08:03:42.950Z,6.79
2023-03-28T08:06:28.697Z,6.91
2023-03-28T08:09:01.766Z,6.74
2023-03-28T08:11:30.104Z,6.65
2023-03-28T08:13:58.346Z,6.56
2023-03-28T08:16:26.731Z,6.62
2023-03-28T08:19:03.949Z,6.64
2023-03-28T08:21:38.600Z,6.71
2023-03-28T08:24:14.049Z,6.83
2023-03-28T08:26:48.648Z,7.12
2023-03-28T08:29:17.003Z,6.87
2023-03-28T08:31:45.503Z,6.87
2023-03-28T08:34:13.866Z,6.87
2023-03-28T08:36:42.660Z,6.86
2023-03-28T08:39:12.681Z,7.12
2023-03-28T08:41:57.563Z,7.15
2023-03-28T08:44:48.321Z,6.89
2023-03-28T08:47:21.560Z,6.80
2023-03-28T08:49:55.720Z,6.82
2023-03-28T08:52:24.495Z,6.98
2023-03-28T08:55:00.054Z,7.07
2023-03-28T08:57:44.686Z,7.03
2023-03-28T09:00:17.588Z,6.97
2023-03-28T09:02:46.080Z,7.12
2023-03-28T09:07:56.215Z,7.35
2023-03-28T09:10:33.694Z,7.35
2023-03-28T09:13:11.480Z,7.39
2023-03-28T09:15:49.351Z,7.42
2023-03-28T09:18:39.302Z,7.46
2023-03-28T09:21:18.281Z,7.47
2023-03-28T09:24:13.177Z,7.40
2023-03-28T09:26:48.483Z,7.51
2023-03-28T09:29:20.011Z,7.59
2023-03-28T09:31:51.222Z,7.54
2023-03-28T09:34:23.499Z,7.64
2023-03-28T09:36:55.517Z,7.71
2023-03-28T09:39:34.085Z,7.94
2023-03-28T09:42:08.060Z,7.83
2023-03-28T09:44:52.981Z,7.59
2023-03-28T09:47:22.877Z,7.54
2023-03-28T09:50:02.135Z,7.55
2023-03-28T09:52:34.245Z,7.62
2023-03-28T09:55:03.126Z,7.63
2023-03-28T09:58:00.977Z,7.70
2023-03-28T10:00:29.861Z,7.88
2023-03-28T10:02:58.611Z,7.77
2023-03-28T10:05:36.893Z,7.82
2023-03-28T10:08:21.476Z,7.95
2023-03-28T10:11:02.837Z,7.81
2023-03-28T10:13:41.746Z,7.81
2023-03-28T10:16:13.747Z,7.87
2023-03-28T10:18:44.213Z,7.78
2023-03-28T10:21:15.929Z,7.83
2023-03-28T10:23:51.337Z,7.66
2023-03-28T10:26:26.699Z,7.80
2023-03-28T10:29:02.301Z,7.82
2023-03-28T10:31:34.328Z,7.81
2023-03-28T10:34:03.212Z,7.77
2023-03-28T10:36:34.005Z,8.01
2023-03-28T10:39:22.541Z,8.09
2023-03-28T10:41:54.896Z,7.73
2023-03-28T10:44:30.686Z,7.55
2023-03-28T10:47:02.496Z,7.61
2023-03-28T10:49:38.958Z,7.74
2023-03-28T10:52:23.113Z,7.89
2023-03-28T10:55:03.149Z,7.80
2023-03-28T10:57:40.302Z,7.85
2023-03-28T11:00:15.519Z,7.83
2023-03-28T11:03:18.063Z,8.02
2023-03-28T11:06:07.931Z,7.86
2023-03-28T11:08:46.689Z,7.96
2023-03-28T11:11:31.342Z,7.93
2023-03-28T11:14:09.162Z,8.17
2023-03-28T11:16:50.600Z,8.34
2023-03-28T11:19:30.804Z,8.13
2023-03-28T11:22:08.060Z,8.03
2023-03-28T11:24:43.943Z,7.86
2023-03-28T11:27:20.570Z,7.85
2023-03-28T11:29:53.157Z,7.88
2023-03-28T11:32:27.703Z,7.91
2023-03-28T11:35:06.657Z,7.94
2023-03-28T11:37:40.188Z,7.72
2023-03-28T11:40:20.122Z,7.58
2023-03-28T11:42:53.149Z,7.60
2023-03-28T11:45:42.001Z,7.84
2023-03-28T11:48:22.853Z,8.17
2023-03-28T11:51:00.347Z,8.08
2023-03-28T11:53:32.102Z,8.05
2023-03-28T11:56:06.963Z,7.86
2023-03-28T11:58:38.633Z,8.03
2023-03-28T12:01:12.131Z,7.96
2023-03-28T12:03:55.854Z,7.82
2023-03-28T12:06:30.747Z,7.92
2023-03-28T12:09:03.772Z,7.77
2023-03-28T12:11:38.877Z,7.64
2023-03-28T12:14:17.396Z,7.53
2023-03-28T12:16:49.392Z,7.62
2023-03-28T12:19:30.579Z,7.59
2023-03-28T12:22:04.729Z,7.70
2023-03-28T12:24:41.874Z,7.81
2023-03-28T12:27:21.030Z,7.89
2023-03-28T12:29:54.860Z,7.83
2023-03-28T12:32:38.460Z,7.88
2023-03-28T12:35:15.998Z,7.85
2023-03-28T12:37:55.814Z,7.76
2023-03-28T12:40:29.699Z,7.77
2023-03-28T12:42:59.734Z,7.72
2023-03-28T12:45:31.629Z,7.77
2023-03-28T12:48:06.881Z,7.90
2023-03-28T12:50:47.376Z,7.82
2023-03-28T12:53:17.300Z,7.91
2023-03-28T12:55:52.346Z,8.00
2023-03-28T12:58:27.320Z,7.70
2023-03-28T13:01:20.882Z,7.80
2023-03-28T13:04:01.835Z,8.09
2023-03-28T13:06:42.479Z,8.11
2023-03-28T13:09:24.823Z,8.03
2023-03-28T13:12:00.301Z,8.19
2023-03-28T13:14:58.033Z,8.21
2023-03-28T13:17:28.104Z,8.39
2023-03-28T13:20:07.290Z,8.53
2023-03-28T13:22:44.377Z,8.49
2023-03-28T13:25:34.008Z,8.56
2023-03-28T13:28:22.729Z,8.63
2023-03-28T13:31:07.667Z,8.45
2023-03-28T13:33:38.406Z,8.63
2023-03-28T13:36:37.731Z,8.70
2023-03-28T13:39:22.019Z,8.62
2023-03-28T13:42:02.431Z,8.65
2023-03-28T13:44:35.043Z,8.78
2023-03-28T13:47:03.358Z,8.79
2023-03-28T13:49:44.008Z,8.51
2023-03-28T13:52:16.830Z,8.43
2023-03-28T13:54:54.683Z,8.40
2023-03-28T13:57:26.360Z,8.23
2023-03-28T13:59:58.604Z,8.27
2023-03-28T14:02:38.112Z,8.22
2023-03-28T14:05:19.817Z,8.20
2023-03-28T14:07:48.200Z,8.23
2023-03-28T14:10:30.023Z,8.23
2023-03-28T14:13:01.661Z,8.16
2023-03-28T14:15:33.685Z,8.21
2023-03-28T14:18:03.198Z,8.30
2023-03-28T14:20:33.155Z,8.29
2023-03-28T14:23:01.896Z,8.17
2023-03-28T14:25:31.641Z,8.27
2023-03-28T14:28:09.242Z,8.23
2023-03-28T14:30:42.403Z,8.17
2023-03-28T14:33:21.433Z,8.12
2023-03-28T14:36:01.857Z,8.19
2023-03-28T14:38:35.295Z,8.29
2023-03-28T14:41:13.371Z,8.46
2023-03-28T14:43:41.879Z,8.64
2023-03-28T14:46:12.306Z,8.54
2023-03-28T14:48:43.497Z,8.28
2023-03-28T14:51:14.425Z,8.32
2023-03-28T14:53:45.974Z,8.21
2023-03-28T14:56:19.594Z,8.11
2023-03-28T14:58:50.214Z,8.13
2023-03-28T15:01:23.078Z,8.29
2023-03-28T15:03:58.574Z,8.30
2023-03-28T15:06:29.496Z,8.16
2023-03-28T15:09:00.534Z,8.14
2023-03-28T15:11:32.846Z,8.18
2023-03-28T15:14:03.482Z,8.25
2023-03-28T15:16:33.462Z,8.20
2023-03-28T15:19:07.130Z,8.11
2023-03-28T15:21:36.246Z,8.08
2023-03-28T15:24:05.894Z,7.90
2023-03-28T15:26:38.318Z,7.76
2023-03-28T15:29:08.714Z,7.82
2023-03-28T15:31:41.491Z,7.80
2023-03-28T15:34:11.944Z,7.62
2023-03-28T15:36:56.350Z,7.63
2023-03-28T15:39:26.595Z,7.57
2023-03-28T15:42:00.616Z,7.55
2023-03-28T15:44:31.768Z,7.51
2023-03-28T15:47:02.951Z,7.51
2023-03-28T15:49:36.918Z,7.52
2023-03-28T15:52:06.800Z,7.60
2023-03-28T15:54:42.278Z,7.56
2023-03-28T15:57:14.419Z,7.42
2023-03-28T15:59:47.760Z,7.37
2023-03-28T16:02:33.686Z,7.35
2023-03-28T16:05:03.712Z,7.27
2023-03-28T16:07:37.123Z,7.18
2023-03-28T16:10:06.178Z,7.11
2023-03-28T16:12:35.674Z,7.10
2023-03-28T16:15:05.495Z,7.08
2023-03-28T16:17:34.140Z,6.90
2023-03-28T16:20:04.095Z,6.77
2023-03-28T16:22:32.199Z,6.70
2023-03-28T16:25:00.333Z,6.66
2023-03-28T16:27:28.376Z,6.60
2023-03-28T16:29:58.213Z,6.56
2023-03-28T16:32:26.794Z,6.55
2023-03-28T16:34:55.229Z,6.59
2023-03-28T16:37:23.444Z,6.62
2023-03-28T16:39:51.609Z,6.50
2023-03-28T16:42:20.875Z,6.41
2023-03-28T16:44:49.179Z,6.39
2023-03-28T16:47:18.735Z,6.32
2023-03-28T16:49:46.868Z,6.25
2023-03-28T16:52:15.009Z,6.24
2023-03-28T16:54:44.322Z,6.20
2023-03-28T16:57:12.526Z,6.17
2023-03-28T16:59:40.686Z,6.19
2023-03-28T17:02:09.165Z,6.20
2023-03-28T17:04:39.187Z,6.18
2023-03-28T17:07:08.298Z,6.19
2023-03-28T17:09:36.407Z,6.17
2023-03-28T17:12:04.669Z,6.17
2023-03-28T17:14:32.903Z,6.20
2023-03-28T17:17:01.593Z,6.17
2023-03-28T17:19:30.217Z,6.18
2023-03-28T17:22:00.661Z,6.18
2023-03-28T17:24:30.032Z,6.16
2023-03-28T17:26:58.172Z,6.13
2023-03-28T17:29:26.474Z,6.14
2023-03-28T17:31:55.346Z,6.11
2023-03-28T17:34:24.794Z,6.12
2023-03-28T17:36:53.487Z,6.13
2023-03-28T17:39:23.161Z,6.12
2023-03-28T17:41:51.480Z,6.15
2023-03-28T17:44:20.538Z,6.12
2023-03-28T17:46:48.875Z,6.12
2023-03-28T17:49:18.271Z,6.15
2023-03-28T17:51:46.795Z,6.15
2023-03-28T17:54:15.109Z,6.15
2023-03-28T17:56:45.032Z,6.15
2023-03-28T17:59:13.824Z,6.13
2023-03-28T18:01:41.972Z,6.12
2023-03-28T18:04:10.326Z,6.12
2023-03-28T18:06:38.540Z,6.11
2023-03-28T18:09:06.754Z,6.12
2023-03-28T18:11:35.866Z,6.12
2023-03-28T18:14:06.189Z,6.07
2023-03-28T18:16:36.335Z,6.05
2023-03-28T18:19:06.938Z,6.03
2023-03-28T18:21:35.246Z,6.05
2023-03-28T18:24:03.562Z,6.03
2023-03-28T18:26:33.235Z,5.99
2023-03-28T18:29:01.663Z,5.99
2023-03-28T18:31:32.416Z,5.92
2023-03-28T18:34:00.633Z,5.87
2023-03-28T18:36:28.911Z,5.85
2023-03-28T18:38:57.130Z,5.79
2023-03-28T18:41:27.503Z,5.75
2023-03-28T18:43:55.685Z,5.69
2023-03-28T18:46:25.575Z,5.67
2023-03-28T18:48:56.530Z,5.64
2023-03-28T18:51:25.706Z,5.56
2023-03-28T18:53:54.026Z,5.48
2023-03-28T18:56:22.961Z,5.46
2023-03-28T18:58:51.502Z,5.43
2023-03-28T19:01:20.707Z,5.39
2023-03-28T19:03:49.984Z,5.31
2023-03-28T19:06:19.809Z,5.29
2023-03-28T19:08:48.858Z,5.27
2023-03-28T19:11:19.803Z,5.23
2023-03-28T19:13:48.297Z,5.24
2023-03-28T19:16:19.469Z,5.20
2023-03-28T19:18:48.862Z,5.21
2023-03-28T19:21:18.127Z,5.19
2023-03-28T19:23:49.877Z,5.10
2023-03-28T19:26:19.523Z,5.05
2023-03-28T19:28:49.163Z,5.00
2023-03-28T19:31:18.500Z,5.00
2023-03-28T19:33:50.367Z,4.95
2023-03-28T19:36:26.551Z,4.91
2023-03-28T19:38:56.892Z,4.93
2023-03-28T19:41:26.660Z,4.91
2023-03-28T19:43:55.524Z,4.92
2023-03-28T19:46:34.663Z,4.92
2023-03-28T19:49:07.101Z,4.88
2023-03-28T19:51:35.735Z,4.86
2023-03-28T19:54:05.783Z,4.90
2023-03-28T19:56:34.073Z,4.84
2023-03-28T19:59:02.311Z,4.82
2023-03-28T20:01:30.667Z,4.82
2023-03-28T20:03:59.730Z,4.74
2023-03-28T20:06:28.178Z,4.72
2023-03-28T20:08:56.558Z,4.71
2023-03-28T20:11:26.749Z,4.64
2023-03-28T20:13:56.409Z,4.59
2023-03-28T20:16:24.891Z,4.59
2023-03-28T20:18:56.534Z,4.51
2023-03-28T20:21:25.696Z,4.48
2023-03-28T20:23:59.093Z,4.43
2023-03-28T20:26:30.852Z,4.40
2023-03-28T20:29:00.557Z,4.35
2023-03-28T20:31:29.773Z,4.35
2023-03-28T20:33:59.036Z,4.34
2023-03-28T20:36:27.405Z,4.29
2023-03-28T20:38:56.591Z,4.24
2023-03-28T20:41:27.397Z,4.22
2023-03-28T20:44:03.683Z,4.23
2023-03-28T20:46:34.678Z,4.23
2023-03-28T20:49:06.255Z,4.19
2023-03-28T20:51:39.377Z,4.12
2023-03-28T20:54:07.807Z,4.14
2023-03-28T20:56:36.362Z,4.09
2023-03-28T20:59:06.828Z,4.12
2023-03-28T21:01:39.636Z,4.09
2023-03-28T21:04:08.803Z,4.03
2023-03-28T21:06:38.466Z,3.97
2023-03-28T21:09:10.006Z,3.91
2023-03-28T21:11:40.090Z,3.88
2023-03-28T21:14:12.726Z,3.79
2023-03-28T21:16:41.461Z,3.75
2023-03-28T21:19:10.476Z,3.76
2023-03-28T21:21:38.572Z,3.74
2023-03-28T21:24:08.213Z,3.70
2023-03-28T21:26:37.083Z,3.68
2023-03-28T21:29:05.938Z,3.60
2023-03-28T21:31:35.544Z,3.59
2023-03-28T21:34:04.683Z,3.57
2023-03-28T21:36:35.929Z,3.53
2023-03-28T21:39:05.597Z,3.49
2023-03-28T21:41:37.813Z,3.41
2023-03-28T21:44:06.331Z,3.37
2023-03-28T21:46:37.462Z,3.35
2023-03-28T21:49:05.672Z,3.37
2023-03-28T21:51:34.122Z,3.25
2023-03-28T21:54:02.289Z,3.25
2023-03-28T21:56:30.651Z,3.24
2023-03-28T21:58:58.619Z,3.24
2023-03-28T22:01:26.834Z,3.26
2023-03-28T22:03:56.461Z,3.26
2023-03-28T22:06:24.709Z,3.26
2023-03-28T22:08:55.759Z,3.25
2023-03-28T22:11:27.990Z,3.26
2023-03-28T22:14:01.889Z,3.30
2023-03-28T22:16:32.493Z,3.34
2023-03-28T22:19:03.345Z,3.38
2023-03-28T22:21:33.479Z,3.39
2023-03-28T22:24:04.494Z,3.43
2023-03-28T22:26:32.759Z,3.47
2023-03-28T22:29:01.229Z,3.53
2023-03-28T22:31:29.695Z,3.51
2023-03-28T22:33:58.294Z,3.51
2023-03-28T22:36:28.068Z,3.54
2023-03-28T22:38:57.224Z,3.56
2023-03-28T22:41:25.546Z,3.53
2023-03-28T22:43:53.643Z,3.51
2023-03-28T22:46:22.351Z,3.47
2023-03-28T22:48:54.626Z,3.51
2023-03-28T22:51:25.248Z,3.45
2023-03-28T22:53:55.319Z,3.44
2023-03-28T22:56:25.530Z,3.44
2023-03-28T22:58:54.113Z,3.43
2023-03-28T23:01:26.175Z,3.43
2023-03-28T23:03:54.484Z,3.37
2023-03-28T23:06:22.790Z,3.32
2023-03-28T23:08:50.874Z,3.25
2023-03-28T23:11:21.298Z,3.24
2023-03-28T23:13:49.431Z,3.21
2023-03-28T23:16:18.027Z,3.18
2023-03-28T23:18:46.311Z,3.12
2023-03-28T23:21:14.741Z,3.12
2023-03-28T23:23:43.197Z,3.08
2023-03-28T23:26:11.343Z,3.04
2023-03-28T23:28:40.942Z,3.02
2023-03-28T23:31:11.355Z,2.99
2023-03-28T23:33:40.163Z,2.97
2023-03-28T23:36:09.261Z,2.97
2023-03-28T23:38:37.605Z,2.97
2023-03-28T23:41:06.687Z,2.89
2023-03-28T23:43:35.572Z,2.88
2023-03-28T23:46:05.413Z,2.86
2023-03-28T23:48:33.677Z,2.82
2023-03-28T23:51:02.767Z,2.82
2023-03-28T23:53:31.332Z,2.82
2023-03-28T23:55:59.641Z,2.78
2023-03-28T23:58:27.867Z,2.78
